Terminal Aerodrome Forecast
Issued by NWS

Home | Current Version | Previous Version | Text Only | Print | Product List | Glossary On
Versions: 1 2 3 4 5 6 7 8 9 10 11 12 13 14 15 16 17 18 19 20
000
FTUS43 KEAX 201400 AAB
TAFMKC
TAF AMD
KMKC 201449Z 2015/2112 19010KT 6SM BR SCT015
     FM201900 20006KT P6SM SCT025 OVC250
     FM210600 19006KT P6SM SCT100 OVC250=

USA.gov is the U.S. government's official web portal to all federal, state and local government web resources and services.